Hovedside
METAR-TAF:

METAR-TAF

Lufthavner :

Kronoby lufthavn

Karleby, Finland

breddegrad: 63-43N, lengdegrad: 023-09E, høyde over havet: 25 m

Gjeldene værobservasjon

Denne rapporten ble laget for 23 minutter siden, klokken 18:20 UTC
Vind 13 kt fra Sørøst
Temperatur 14°C
Luftfuktighet 100%
Trykk 993 hPa
Sikt 10 km eller mer
ingen skyer under 1500 m og ingen bygeskyer

METAR: EFKK 211820Z AUTO 13013KT CAVOK 14/14 Q0993

Tid: 21:43 (18:43 UTC)

Varsel

Denne rapporten ble laget for 1 time og 5 minutter siden, klokken 17:38 UTC
Varsel gyldig fra 21. klokken 18 UTC til 21. klokken 23 UTC
Vind 12 kt fra Sør-sørøst
Sikt 10 km eller mer
Brutte skyer i en høyde av 700 ft
Blir
fra 21. klokken 18 UTC til 21. klokken 19 UTC
Få skyer i en høyde av 800 ft

TAF: EFKK 211738Z 2118/2123 15012KT 9999 NSW BKN007 BECMG 2118/2119 FEW008

Værobservasjoner og værvarsel for over 4000 flyplasser (METAR- og TAF-rapporter).

Tilgjengelige stasjoner er representert av de røde og gule prikkene på kartet.

Hold musepekeren over prikken for å se navnet på stasjonen.

Klikk så for å se værobservasjoner og -varsler.

For å forandre kartet kan du klikke på den grønne knappen med svart kryss for å zoome inn, på den grønne knappen med strek for å zoome ut, eller på de grønne pilene for å se tilstøtende kart.


METAR-TAF: